createdAt,value
2018-07-24T00:00:31.556Z,101065.09
2018-07-24T00:02:57.511Z,101066.58
2018-07-24T00:05:23.507Z,101062.43
2018-07-24T00:07:49.456Z,101064.08
2018-07-24T00:10:15.426Z,101061.45
2018-07-24T00:12:41.499Z,101060.44
2018-07-24T00:15:07.476Z,101063.09
2018-07-24T00:17:33.445Z,101059.77
2018-07-24T00:19:59.435Z,101055.27
2018-07-24T00:22:25.457Z,101058.95
2018-07-24T00:24:51.412Z,101057.45
2018-07-24T00:27:17.390Z,101060.59
2018-07-24T00:29:43.368Z,101055.78
2018-07-24T00:32:09.342Z,101049.95
2018-07-24T00:34:35.275Z,101056.61
2018-07-24T00:37:01.275Z,101052.45
2018-07-24T00:39:27.260Z,101050.97
2018-07-24T00:41:53.234Z,101049.80
2018-07-24T00:44:19.264Z,101053.13
2018-07-24T00:46:45.223Z,101044.48
2018-07-24T00:49:11.208Z,101047.96
2018-07-24T00:51:37.254Z,101046.00
2018-07-24T00:54:03.301Z,101042.83
2018-07-24T00:56:29.244Z,101040.84
2018-07-24T00:58:55.256Z,101039.00
2018-07-24T01:01:21.248Z,101034.03
2018-07-24T01:03:47.244Z,101036.50
2018-07-24T01:06:13.217Z,101035.52
2018-07-24T01:08:39.202Z,101035.84
2018-07-24T01:11:05.152Z,101034.51
2018-07-24T01:13:31.198Z,101037.67
2018-07-24T01:15:57.152Z,101033.52
2018-07-24T01:18:23.203Z,101031.17
2018-07-24T01:20:49.192Z,101028.20
2018-07-24T01:23:15.186Z,101027.55
2018-07-24T01:25:41.164Z,101024.88
2018-07-24T01:28:07.167Z,101023.55
2018-07-24T01:30:33.121Z,101028.88
2018-07-24T01:32:59.143Z,101024.22
2018-07-24T01:35:25.084Z,101030.71
2018-07-24T01:37:51.085Z,101025.70
2018-07-24T01:40:17.088Z,101024.38
2018-07-24T01:42:43.039Z,101024.88
2018-07-24T01:45:09.008Z,101024.06
2018-07-24T01:47:34.986Z,101022.89
2018-07-24T01:50:00.966Z,101016.08
2018-07-24T01:52:26.941Z,101016.59
2018-07-24T01:54:52.923Z,101015.27
2018-07-24T01:57:18.907Z,101015.92
2018-07-24T01:59:44.858Z,101021.56
2018-07-24T02:02:10.829Z,101019.88
2018-07-24T02:04:36.816Z,101020.73
2018-07-24T02:07:02.826Z,101013.08
2018-07-24T02:09:28.781Z,101015.23
2018-07-24T02:11:54.740Z,101016.40
2018-07-24T02:14:20.712Z,101016.55
2018-07-24T02:16:46.684Z,101018.08
2018-07-24T02:19:12.652Z,101009.95
2018-07-24T02:21:38.620Z,101012.41
2018-07-24T02:24:04.638Z,101011.27
2018-07-24T02:26:30.624Z,101002.95
2018-07-24T02:28:56.596Z,101010.58
2018-07-24T02:31:22.621Z,101007.60
2018-07-24T02:33:48.629Z,101016.40
2018-07-24T02:36:14.617Z,101009.95
2018-07-24T02:38:40.584Z,101013.59
2018-07-24T02:41:06.567Z,101007.13
2018-07-24T02:43:32.527Z,101006.94
2018-07-24T02:45:58.487Z,101012.77
2018-07-24T02:48:24.436Z,101009.09
2018-07-24T02:50:50.441Z,101008.97
2018-07-24T02:53:16.417Z,101012.45
2018-07-24T02:55:42.371Z,101009.63
2018-07-24T02:58:08.386Z,101009.95
2018-07-24T03:00:34.361Z,101011.12
2018-07-24T03:03:00.412Z,101016.75
2018-07-24T03:05:26.418Z,101016.94
2018-07-24T03:07:52.398Z,101013.42
2018-07-24T03:10:18.361Z,101013.94
2018-07-24T03:12:44.323Z,101006.63
2018-07-24T03:15:10.420Z,101013.11
2018-07-24T03:17:36.401Z,101009.44
2018-07-24T03:20:02.342Z,101011.47
2018-07-24T03:22:28.311Z,101009.44
2018-07-24T03:24:54.309Z,101008.62
2018-07-24T03:27:20.284Z,101007.95
2018-07-24T03:29:46.248Z,101014.76
2018-07-24T03:32:12.215Z,101007.80
2018-07-24T03:34:38.175Z,101002.16
2018-07-24T03:37:04.153Z,101004.16
2018-07-24T03:39:30.105Z,101005.64
2018-07-24T03:41:56.112Z,101002.98
2018-07-24T03:44:22.084Z,101007.64
2018-07-24T03:46:48.042Z,101010.61
2018-07-24T03:49:14.018Z,101004.98
2018-07-24T03:51:39.998Z,101012.29
2018-07-24T03:54:06.005Z,101004.66
2018-07-24T03:56:31.980Z,101009.98
2018-07-24T03:58:57.968Z,101012.80
2018-07-24T04:01:23.946Z,101015.61
2018-07-24T04:03:49.934Z,101013.14
2018-07-24T04:06:15.901Z,101016.63
2018-07-24T04:08:41.883Z,101016.78
2018-07-24T04:11:07.845Z,101021.44
2018-07-24T04:13:33.832Z,101016.13
2018-07-24T04:15:59.800Z,101014.13
2018-07-24T04:18:25.847Z,101015.45
2018-07-24T04:20:51.819Z,101016.94
2018-07-24T04:23:17.772Z,101020.77
2018-07-24T04:25:43.743Z,101019.63
2018-07-24T04:28:09.708Z,101011.31
2018-07-24T04:30:35.671Z,101013.97
2018-07-24T04:33:01.627Z,101010.64
2018-07-24T04:35:27.600Z,101007.67
2018-07-24T04:37:53.552Z,101010.64
2018-07-24T04:40:19.622Z,101008.65
2018-07-24T04:42:45.533Z,101006.97
2018-07-24T04:45:11.537Z,101001.50
2018-07-24T04:47:37.560Z,101005.48
2018-07-24T04:50:03.536Z,101006.66
2018-07-24T04:52:29.484Z,101005.98
2018-07-24T04:54:55.452Z,101004.98
2018-07-24T04:57:21.426Z,101006.66
2018-07-24T04:59:47.382Z,101007.64
2018-07-24T05:02:13.367Z,101004.66
2018-07-24T05:04:39.404Z,101008.97
2018-07-24T05:07:05.382Z,101010.64
2018-07-24T05:09:31.441Z,101008.65
2018-07-24T05:11:57.412Z,101003.97
2018-07-24T05:14:23.379Z,101009.47
2018-07-24T05:16:49.385Z,101010.80
2018-07-24T05:19:15.372Z,101014.44
2018-07-24T05:21:41.333Z,101014.28
2018-07-24T05:24:07.341Z,101018.59
2018-07-24T05:26:33.316Z,101012.95
2018-07-24T05:28:59.296Z,101013.46
2018-07-24T05:31:25.256Z,101011.62
2018-07-24T05:33:51.229Z,101009.95
2018-07-24T05:36:17.206Z,101009.13
2018-07-24T05:38:43.268Z,101008.30
2018-07-24T05:41:09.185Z,101015.27
2018-07-24T05:43:35.173Z,101012.80
2018-07-24T05:46:01.141Z,101007.80
2018-07-24T05:48:27.201Z,101011.12
2018-07-24T05:50:53.162Z,101008.30
2018-07-24T05:53:19.160Z,101011.62
2018-07-24T05:55:45.206Z,101007.13
2018-07-24T05:58:11.203Z,101006.81
2018-07-24T06:00:37.191Z,101005.98
2018-07-24T06:03:03.158Z,101009.00
2018-07-24T06:05:29.179Z,101009.00
2018-07-24T06:07:55.161Z,101011.81
2018-07-24T06:10:21.173Z,101009.63
2018-07-24T06:12:47.128Z,101011.30
2018-07-24T06:15:13.113Z,101009.82
2018-07-24T06:17:39.093Z,101007.67
2018-07-24T06:20:05.086Z,101003.92
2018-07-24T06:22:31.040Z,101010.30
2018-07-24T06:24:56.999Z,101007.48
2018-07-24T06:27:22.956Z,101011.62
2018-07-24T06:29:48.925Z,101009.75
2018-07-24T06:32:14.992Z,101007.92
2018-07-24T06:34:41.092Z,101009.13
2018-07-24T06:37:07.145Z,101005.30
2018-07-24T06:39:33.233Z,101007.80
2018-07-24T06:41:59.226Z,101004.13
2018-07-24T06:44:25.317Z,101002.31
2018-07-24T06:46:51.233Z,101011.27
2018-07-24T06:49:18.208Z,101006.78
2018-07-24T06:51:44.397Z,101013.55
2018-07-24T06:54:11.534Z,101013.39
2018-07-24T06:56:37.514Z,101017.72
2018-07-24T06:59:03.461Z,101022.03
2018-07-24T07:01:29.457Z,101014.90
2018-07-24T07:03:56.438Z,101007.91
2018-07-24T07:06:22.418Z,101014.55
2018-07-24T07:08:48.391Z,101011.23
2018-07-24T07:11:14.400Z,101010.22
2018-07-24T07:13:40.463Z,101002.91
2018-07-24T07:16:06.452Z,101000.75
2018-07-24T07:18:32.448Z,101001.41
2018-07-24T07:20:58.413Z,101003.75
2018-07-24T07:23:24.396Z,101003.71
2018-07-24T07:25:50.389Z,100998.94
2018-07-24T07:28:16.402Z,101000.90
2018-07-24T07:30:42.374Z,101003.75
2018-07-24T07:33:08.389Z,100994.09
2018-07-24T07:35:34.427Z,100995.58
2018-07-24T07:38:00.501Z,100994.99
2018-07-24T07:40:26.565Z,100996.59
2018-07-24T07:42:52.600Z,100995.22
2018-07-24T07:45:18.657Z,100994.09
2018-07-24T07:47:44.575Z,100986.27
2018-07-24T07:50:10.520Z,100986.11
2018-07-24T07:52:36.613Z,100982.93
2018-07-24T07:55:02.478Z,100983.09
2018-07-24T07:57:28.449Z,100988.25
2018-07-24T07:59:54.421Z,100981.09
2018-07-24T08:02:20.449Z,100975.10
2018-07-24T08:04:46.470Z,100978.42
2018-07-24T08:07:12.434Z,100978.89
2018-07-24T08:09:38.404Z,100984.87
2018-07-24T08:12:04.428Z,100974.94
2018-07-24T08:14:30.390Z,100975.24
2018-07-24T08:16:56.377Z,100972.23
2018-07-24T08:19:22.351Z,100974.16
2018-07-24T08:21:48.318Z,100973.72
2018-07-24T08:24:14.288Z,100973.91
2018-07-24T08:26:40.252Z,100974.01
2018-07-24T08:29:06.244Z,100968.16
2018-07-24T08:31:32.208Z,100971.95
2018-07-24T08:33:58.232Z,100970.69
2018-07-24T08:36:24.230Z,100968.16
2018-07-24T08:38:50.272Z,100973.13
2018-07-24T08:41:16.271Z,100967.58
2018-07-24T08:43:42.249Z,100967.06
2018-07-24T08:46:08.250Z,100966.69
2018-07-24T08:48:34.276Z,100961.80
2018-07-24T08:51:00.316Z,100963.81
2018-07-24T08:53:26.598Z,100960.18
2018-07-24T08:55:52.334Z,100966.25
2018-07-24T08:58:18.302Z,100964.17
2018-07-24T09:00:44.300Z,100966.01
2018-07-24T09:03:10.354Z,100961.82
2018-07-24T09:05:36.308Z,100952.72
2018-07-24T09:08:02.400Z,100958.53
2018-07-24T09:10:28.376Z,100960.03
2018-07-24T09:12:54.376Z,100953.23
2018-07-24T09:15:20.340Z,100950.22
2018-07-24T09:17:46.371Z,100947.70
2018-07-24T09:20:12.322Z,100942.37
2018-07-24T09:22:38.309Z,100942.06
2018-07-24T09:25:04.273Z,100946.56
2018-07-24T09:27:30.245Z,100950.20
2018-07-24T09:29:56.229Z,100944.91
2018-07-24T09:32:22.191Z,100952.56
2018-07-24T09:34:48.166Z,100951.55
2018-07-24T09:37:14.279Z,100958.53
2018-07-24T09:39:40.250Z,100948.27
2018-07-24T09:42:06.239Z,100941.27
2018-07-24T09:44:32.222Z,100943.93
2018-07-24T09:46:58.187Z,100940.28
2018-07-24T09:49:24.156Z,100942.90
2018-07-24T09:51:50.108Z,100943.23
2018-07-24T09:54:16.124Z,100944.89
2018-07-24T09:56:42.155Z,100940.38
2018-07-24T09:59:08.123Z,100941.17
2018-07-24T10:01:37.224Z,100928.92
2018-07-24T10:04:03.218Z,100930.38
2018-07-24T10:06:29.210Z,100928.91
2018-07-24T10:08:55.269Z,100922.91
2018-07-24T10:11:21.285Z,100922.76
2018-07-24T10:13:47.239Z,100924.84
2018-07-24T10:16:13.227Z,100917.88
2018-07-24T10:18:39.282Z,100910.22
2018-07-24T10:21:05.248Z,100906.47
2018-07-24T10:23:31.213Z,100909.47
2018-07-24T10:25:57.181Z,100904.13
2018-07-24T10:28:23.172Z,100902.59
2018-07-24T10:30:49.126Z,100902.80
2018-07-24T10:33:15.166Z,100899.81
2018-07-24T10:35:41.146Z,100900.95
2018-07-24T10:38:07.212Z,100899.58
2018-07-24T10:40:33.169Z,100897.95
2018-07-24T10:42:59.207Z,100890.98
2018-07-24T10:45:25.180Z,100888.02
2018-07-24T10:47:51.179Z,100890.98
2018-07-24T10:50:17.140Z,100892.62
2018-07-24T10:52:43.109Z,100886.69
2018-07-24T10:55:09.129Z,100881.16
2018-07-24T10:57:35.120Z,100882.69
2018-07-24T11:00:01.107Z,100879.09
2018-07-24T11:02:27.102Z,100877.52
2018-07-24T11:04:53.052Z,100878.05
2018-07-24T11:07:19.030Z,100879.69
2018-07-24T11:09:45.145Z,100868.37
2018-07-24T11:12:11.219Z,100864.23
2018-07-24T11:14:37.185Z,100864.21
2018-07-24T11:17:03.172Z,100865.88
2018-07-24T11:19:29.151Z,100872.34
2018-07-24T11:21:55.184Z,100862.01
2018-07-24T11:24:21.124Z,100863.65
2018-07-24T11:26:47.144Z,100854.33
2018-07-24T11:29:13.111Z,100855.33
2018-07-24T11:31:39.141Z,100855.64
2018-07-24T11:34:05.199Z,100856.32
2018-07-24T11:36:31.209Z,100858.16
2018-07-24T11:38:57.237Z,100854.97
2018-07-24T11:41:23.203Z,100852.02
2018-07-24T11:43:49.392Z,100848.19
2018-07-24T11:46:15.943Z,100850.70
2018-07-24T11:48:42.047Z,100852.38
2018-07-24T11:51:09.207Z,100848.62
2018-07-24T11:53:35.207Z,100850.34
2018-07-24T11:56:01.172Z,100848.41
2018-07-24T11:58:27.173Z,100852.86
2018-07-24T12:00:53.222Z,100843.25
2018-07-24T12:03:19.199Z,100838.27
2018-07-24T12:05:45.201Z,100839.75
2018-07-24T12:08:11.184Z,100842.41
2018-07-24T12:10:37.166Z,100841.08
2018-07-24T12:13:03.181Z,100827.09
2018-07-24T12:15:29.157Z,100835.91
2018-07-24T12:17:55.128Z,100833.23
2018-07-24T12:20:21.086Z,100824.09
2018-07-24T12:22:47.056Z,100822.77
2018-07-24T12:25:13.013Z,100826.05
2018-07-24T12:27:38.989Z,100827.23
2018-07-24T12:30:04.976Z,100825.38
2018-07-24T12:32:31.077Z,100820.98
2018-07-24T12:34:57.044Z,100819.69
2018-07-24T12:37:23.012Z,100815.60
2018-07-24T12:39:49.187Z,100816.31
2018-07-24T12:42:15.148Z,100815.29
2018-07-24T12:44:41.139Z,100811.75
2018-07-24T12:47:07.092Z,100809.60
2018-07-24T12:49:33.052Z,100810.91
2018-07-24T12:51:59.022Z,100805.44
2018-07-24T12:54:24.999Z,100796.58
2018-07-24T12:56:50.975Z,100803.45
2018-07-24T12:59:16.955Z,100801.73
2018-07-24T13:01:42.937Z,100804.78
2018-07-24T13:04:08.986Z,100800.63
2018-07-24T13:06:34.883Z,100799.61
2018-07-24T13:09:00.865Z,100794.42
2018-07-24T13:11:26.873Z,100793.75
2018-07-24T13:13:52.828Z,100796.18
2018-07-24T13:16:18.859Z,100787.38
2018-07-24T13:18:44.820Z,100779.92
2018-07-24T13:21:10.840Z,100783.50
2018-07-24T13:23:36.813Z,100781.14
2018-07-24T13:26:02.807Z,100777.41
2018-07-24T13:28:28.760Z,100774.09
2018-07-24T13:30:54.756Z,100778.42
2018-07-24T13:33:20.720Z,100774.23
2018-07-24T13:35:46.684Z,100763.28
2018-07-24T13:38:13.683Z,100766.82
2018-07-24T13:40:39.653Z,100768.48
2018-07-24T13:43:05.635Z,100761.19
2018-07-24T13:45:31.590Z,100763.67
2018-07-24T13:47:57.568Z,100764.84
2018-07-24T13:50:23.561Z,100761.50
2018-07-24T13:52:49.512Z,100758.19
2018-07-24T13:55:15.494Z,100758.05
2018-07-24T13:57:41.517Z,100755.19
2018-07-24T14:00:07.521Z,100757.30
2018-07-24T14:02:33.583Z,100752.19
2018-07-24T14:04:59.585Z,100761.80
2018-07-24T14:07:25.565Z,100757.81
2018-07-24T14:09:51.607Z,100753.14
2018-07-24T14:12:17.592Z,100751.12
2018-07-24T14:14:43.555Z,100752.86
2018-07-24T14:17:09.552Z,100743.86
2018-07-24T14:19:35.529Z,100747.81
2018-07-24T14:22:01.487Z,100742.87
2018-07-24T14:24:27.464Z,100734.55
2018-07-24T14:26:53.537Z,100728.67
2018-07-24T14:29:19.531Z,100730.89
2018-07-24T14:31:45.505Z,100721.20
2018-07-24T14:34:11.478Z,100725.70
2018-07-24T14:36:37.530Z,100724.95
2018-07-24T14:39:03.497Z,100722.70
2018-07-24T14:41:29.551Z,100719.39
2018-07-24T14:43:55.529Z,100724.86
2018-07-24T14:48:53.837Z,100717.86
2018-07-24T14:51:19.814Z,100707.97
2018-07-24T14:53:45.790Z,100710.42
2018-07-24T14:56:11.774Z,100711.20
2018-07-24T14:58:37.742Z,100716.70
2018-07-24T15:01:03.781Z,100710.93
2018-07-24T15:03:29.761Z,100705.23
2018-07-24T15:05:55.769Z,100706.59
2018-07-24T15:08:21.801Z,100706.42
2018-07-24T15:10:47.770Z,100709.91
2018-07-24T15:13:13.766Z,100709.16
2018-07-24T15:15:39.723Z,100697.97
2018-07-24T15:18:05.719Z,100703.48
2018-07-24T15:20:31.674Z,100699.36
2018-07-24T15:22:57.626Z,100703.12
2018-07-24T15:25:23.619Z,100702.33
2018-07-24T15:27:49.717Z,100697.17
2018-07-24T15:30:15.703Z,100695.30
2018-07-24T15:32:42.766Z,100694.52
2018-07-24T15:35:08.958Z,100699.36
2018-07-24T15:37:35.010Z,100685.03
2018-07-24T15:40:00.988Z,100683.02
2018-07-24T15:42:26.977Z,100686.50
2018-07-24T15:44:52.984Z,100686.12
2018-07-24T15:47:18.991Z,100678.99
2018-07-24T15:49:44.988Z,100682.61
2018-07-24T15:52:11.011Z,100681.28
2018-07-24T15:54:36.958Z,100677.73
2018-07-24T15:57:02.939Z,100679.44
2018-07-24T15:59:28.965Z,100676.12
2018-07-24T16:01:54.978Z,100680.49
2018-07-24T16:04:20.954Z,100676.50
2018-07-24T16:06:46.921Z,100678.69
2018-07-24T16:09:14.296Z,100680.33
2018-07-24T16:11:40.344Z,100676.50
2018-07-24T16:14:06.342Z,100677.49
2018-07-24T16:16:32.291Z,100675.98
2018-07-24T16:18:58.254Z,100671.63
2018-07-24T16:21:24.222Z,100675.34
2018-07-24T16:23:50.215Z,100669.03
2018-07-24T16:26:16.285Z,100670.16
2018-07-24T16:28:42.218Z,100670.22
2018-07-24T16:31:10.125Z,100671.08
2018-07-24T16:33:36.241Z,100669.61
2018-07-24T16:36:02.271Z,100664.80
2018-07-24T16:38:28.308Z,100668.92
2018-07-24T16:40:54.347Z,100671.59
2018-07-24T16:43:20.372Z,100669.30
2018-07-24T16:45:46.339Z,100671.45
2018-07-24T16:48:12.344Z,100667.73
2018-07-24T16:50:38.298Z,100668.92
2018-07-24T16:53:04.387Z,100668.44
2018-07-24T16:55:30.376Z,100664.13
2018-07-24T16:57:56.429Z,100654.59
2018-07-24T17:00:22.361Z,100657.63
2018-07-24T17:02:48.335Z,100659.09
2018-07-24T17:05:14.328Z,100655.61
2018-07-24T17:07:40.304Z,100653.60
2018-07-24T17:10:06.273Z,100656.30
2018-07-24T17:12:33.248Z,100653.33
2018-07-24T17:14:59.240Z,100652.82
2018-07-24T17:17:25.281Z,100651.76
2018-07-24T17:19:51.308Z,100649.57
2018-07-24T17:22:17.256Z,100648.86
2018-07-24T17:24:43.232Z,100647.45
2018-07-24T17:27:09.193Z,100647.13
2018-07-24T17:29:35.149Z,100646.55
2018-07-24T17:32:01.120Z,100650.40
2018-07-24T17:34:27.089Z,100644.42
2018-07-24T17:36:53.065Z,100650.06
2018-07-24T17:39:19.022Z,100651.22
2018-07-24T17:41:45.026Z,100655.34
2018-07-24T17:44:10.961Z,100653.33
2018-07-24T17:46:36.934Z,100654.45
2018-07-24T17:49:02.904Z,100654.94
2018-07-24T17:51:28.878Z,100660.83
2018-07-24T17:53:54.843Z,100658.41
2018-07-24T17:56:20.829Z,100657.56
2018-07-24T17:58:46.779Z,100661.59
2018-07-24T18:01:12.813Z,100661.21
2018-07-24T18:03:38.813Z,100654.59
2018-07-24T18:06:04.790Z,100654.59
2018-07-24T18:08:30.788Z,100655.48
2018-07-24T18:10:56.757Z,100665.17
2018-07-24T18:13:22.754Z,100661.69
2018-07-24T18:15:48.730Z,100670.02
2018-07-24T18:18:14.760Z,100665.72
2018-07-24T18:20:40.833Z,100667.36
2018-07-24T18:23:06.805Z,100666.16
2018-07-24T18:25:32.801Z,100666.16
2018-07-24T18:27:58.757Z,100665.69
2018-07-24T18:30:24.708Z,100664.28
2018-07-24T18:32:50.699Z,100670.42
2018-07-24T18:35:16.644Z,100672.23
2018-07-24T18:37:42.607Z,100671.72
2018-07-24T18:40:08.585Z,100675.34
2018-07-24T18:42:34.556Z,100674.34
2018-07-24T18:45:00.613Z,100680.53
2018-07-24T18:47:26.635Z,100675.20
2018-07-24T18:49:52.602Z,100675.95
2018-07-24T18:52:18.557Z,100672.94
2018-07-24T18:54:44.576Z,100676.53
2018-07-24T18:57:10.550Z,100675.75
2018-07-24T18:59:36.539Z,100676.50
2018-07-24T19:02:02.550Z,100678.34
2018-07-24T19:04:28.534Z,100685.67
2018-07-24T19:06:54.485Z,100681.31
2018-07-24T19:09:20.454Z,100684.63
2018-07-24T19:11:46.425Z,100682.91
2018-07-24T19:14:12.380Z,100685.58
2018-07-24T19:16:38.375Z,100688.58
2018-07-24T19:19:04.364Z,100688.58
2018-07-24T19:21:30.327Z,100690.59
2018-07-24T19:23:56.296Z,100686.60
2018-07-24T19:26:22.260Z,100697.89
2018-07-24T19:28:48.215Z,100700.22
2018-07-24T19:31:14.266Z,100694.75
2018-07-24T19:33:40.205Z,100704.07
2018-07-24T19:36:06.218Z,100711.41
2018-07-24T19:38:32.203Z,100710.14
2018-07-24T19:40:58.151Z,100708.98
2018-07-24T19:43:24.127Z,100713.14
2018-07-24T19:45:50.087Z,100712.94
2018-07-24T19:48:16.047Z,100716.28
2018-07-24T19:50:42.016Z,100719.73
2018-07-24T19:53:07.986Z,100719.53
2018-07-24T19:55:33.958Z,100722.84
2018-07-24T19:58:00.034Z,100724.03
2018-07-24T20:00:26.019Z,100725.56
2018-07-24T20:02:51.978Z,100724.23
2018-07-24T20:05:17.930Z,100728.23
2018-07-24T20:07:43.909Z,100728.84
2018-07-24T20:10:09.934Z,100735.50
2018-07-24T20:12:35.857Z,100734.68
2018-07-24T20:15:01.833Z,100740.83
2018-07-24T20:17:27.785Z,100733.72
2018-07-24T20:19:53.781Z,100736.05
2018-07-24T20:22:19.780Z,100737.58
2018-07-24T20:24:45.748Z,100735.22
2018-07-24T20:27:11.715Z,100737.88
2018-07-24T20:29:37.662Z,100739.55
2018-07-24T20:32:03.650Z,100737.17
2018-07-24T20:34:29.625Z,100735.78
2018-07-24T20:36:55.605Z,100739.09
2018-07-24T20:39:21.564Z,100744.07
2018-07-24T20:41:47.515Z,100742.09
2018-07-24T20:44:13.510Z,100743.73
2018-07-24T20:46:39.513Z,100744.89
2018-07-24T20:49:05.509Z,100743.88
2018-07-24T20:51:31.495Z,100743.22
2018-07-24T20:53:57.474Z,100739.09
2018-07-24T20:56:23.534Z,100743.01
2018-07-24T20:58:49.479Z,100737.85
2018-07-24T21:01:15.461Z,100740.00
2018-07-24T21:03:41.433Z,100743.03
2018-07-24T21:06:07.453Z,100739.89
2018-07-24T21:08:33.418Z,100744.23
2018-07-24T21:10:59.388Z,100750.20
2018-07-24T21:13:25.377Z,100749.55
2018-07-24T21:15:51.364Z,100753.99
2018-07-24T21:18:17.400Z,100744.37
2018-07-24T21:20:43.368Z,100743.69
2018-07-24T21:23:09.422Z,100747.88
2018-07-24T21:25:35.403Z,100749.58
2018-07-24T21:28:01.356Z,100744.31
2018-07-24T21:30:27.347Z,100742.62
2018-07-24T21:32:53.325Z,100747.06
2018-07-24T21:35:19.288Z,100752.52
2018-07-24T21:37:45.264Z,100753.17
2018-07-24T21:40:11.227Z,100756.72
2018-07-24T21:42:37.326Z,100760.50
2018-07-24T21:45:03.199Z,100760.88
2018-07-24T21:47:29.204Z,100760.20
2018-07-24T21:49:55.242Z,100763.92
2018-07-24T21:52:21.244Z,100758.52
2018-07-24T21:54:47.215Z,100766.20
2018-07-24T21:57:13.638Z,100763.37
2018-07-24T21:59:39.979Z,100766.03
2018-07-24T22:02:05.942Z,100760.23
2018-07-24T22:04:31.939Z,100758.59
2018-07-24T22:06:57.891Z,100761.39
2018-07-24T22:09:23.857Z,100763.23
2018-07-24T22:11:49.925Z,100764.27
2018-07-24T22:14:15.953Z,100764.10
2018-07-24T22:16:41.979Z,100761.64
2018-07-24T22:19:07.977Z,100763.77
2018-07-24T22:21:33.931Z,100762.09
2018-07-24T22:23:59.883Z,100763.48
2018-07-24T22:26:25.848Z,100763.65
2018-07-24T22:28:51.829Z,100772.80
2018-07-24T22:31:17.827Z,100772.17
2018-07-24T22:33:43.843Z,100767.33
2018-07-24T22:36:09.814Z,100765.49
2018-07-24T22:38:35.836Z,100771.47
2018-07-24T22:41:01.836Z,100782.13
2018-07-24T22:43:27.871Z,100776.98
2018-07-24T22:45:53.850Z,100782.50
2018-07-24T22:48:19.800Z,100781.98
2018-07-24T22:50:45.837Z,100783.31
2018-07-24T22:53:12.017Z,100782.98
2018-07-24T22:55:37.967Z,100786.63
2018-07-24T22:58:03.920Z,100785.81
2018-07-24T23:00:29.895Z,100784.96
2018-07-24T23:02:55.875Z,100785.33
2018-07-24T23:05:22.107Z,100788.81
2018-07-24T23:07:48.071Z,100789.46
2018-07-24T23:10:14.040Z,100786.00
2018-07-24T23:12:39.987Z,100787.31
2018-07-24T23:15:05.960Z,100787.45
2018-07-24T23:17:31.995Z,100788.28
2018-07-24T23:19:57.972Z,100785.05
2018-07-24T23:22:23.927Z,100784.65
2018-07-24T23:24:49.887Z,100785.30
2018-07-24T23:27:15.855Z,100788.77
2018-07-24T23:29:41.807Z,100785.76
2018-07-24T23:32:07.759Z,100788.42
2018-07-24T23:34:33.733Z,100791.59
2018-07-24T23:36:59.685Z,100792.75
2018-07-24T23:39:25.730Z,100794.92
2018-07-24T23:41:51.688Z,100789.44
2018-07-24T23:44:17.650Z,100791.22
2018-07-24T23:46:43.676Z,100785.11
2018-07-24T23:49:09.585Z,100789.30
2018-07-24T23:51:35.540Z,100793.45
2018-07-24T23:54:01.505Z,100784.65
2018-07-24T23:56:27.516Z,100790.91
2018-07-24T23:58:53.510Z,100790.63
